Terminal Aerodrome Forecast
Issued by NWS Binghamton, NY

Home | Current Version | Previous Version | Text Only | Print | Product List | Glossary On
Versions: 1 2 3 4 5 6 7 8 9 10 11 12 13 14 15 16 17 18 19 20 21 22 23 24 25 26 27 28 29 30 31 32 33 34 35 36 37 38
000
FTUS41 KBGM 191500 AAB
TAFBGM
TAF AMD
KBGM 191502Z 1915/2012 32010G20KT 5SM -FZDZSN BR BKN008 OVC015
      TEMPO 1915/1918 1SM -SN OVC005
     FM192100 31010KT 6SM BR OVC010
     FM200300 32007KT P6SM OVC008=

USA.gov is the U.S. government's official web portal to all federal, state and local government web resources and services.